sensor_id;sensor_type;location;lat;lon;timestamp;pressure;altitude;pressure_sealevel;temperature;humidity
47556;BME280;33291;46.222;26.460;2023-02-19T00:00:55;95743.25;;;9.42;68.96
47556;BME280;33291;46.222;26.460;2023-02-19T00:03:21;95759.00;;;9.41;68.94
47556;BME280;33291;46.222;26.460;2023-02-19T00:05:46;95757.88;;;9.43;67.72
47556;BME280;33291;46.222;26.460;2023-02-19T00:08:12;95761.13;;;9.46;67.30
47556;BME280;33291;46.222;26.460;2023-02-19T00:10:37;95760.19;;;9.47;66.79
47556;BME280;33291;46.222;26.460;2023-02-19T00:13:03;95776.69;;;9.55;66.38
47556;BME280;33291;46.222;26.460;2023-02-19T00:15:31;95765.09;;;9.50;66.57
47556;BME280;33291;46.222;26.460;2023-02-19T00:17:56;95792.88;;;9.49;66.17
47556;BME280;33291;46.222;26.460;2023-02-19T00:20:22;95788.19;;;9.53;66.04
47556;BME280;33291;46.222;26.460;2023-02-19T00:22:47;95761.88;;;9.56;66.01
47556;BME280;33291;46.222;26.460;2023-02-19T00:25:12;95779.44;;;9.54;65.86
47556;BME280;33291;46.222;26.460;2023-02-19T00:27:38;95817.44;;;9.55;65.12
47556;BME280;33291;46.222;26.460;2023-02-19T00:30:04;95804.59;;;9.53;65.30
47556;BME280;33291;46.222;26.460;2023-02-19T00:32:29;95824.13;;;9.57;65.78
47556;BME280;33291;46.222;26.460;2023-02-19T00:34:55;95798.97;;;9.40;65.56
47556;BME280;33291;46.222;26.460;2023-02-19T00:37:20;95814.31;;;9.33;65.87
47556;BME280;33291;46.222;26.460;2023-02-19T00:39:46;95858.97;;;9.47;66.31
47556;BME280;33291;46.222;26.460;2023-02-19T00:42:11;95875.00;;;9.42;67.42
47556;BME280;33291;46.222;26.460;2023-02-19T00:44:36;95863.47;;;9.27;68.24
47556;BME280;33291;46.222;26.460;2023-02-19T00:47:02;95888.06;;;9.32;68.60
47556;BME280;33291;46.222;26.460;2023-02-19T00:49:27;95875.34;;;9.29;69.39
47556;BME280;33291;46.222;26.460;2023-02-19T00:51:53;95848.03;;;9.25;69.25
47556;BME280;33291;46.222;26.460;2023-02-19T00:54:19;95854.19;;;9.24;68.20
47556;BME280;33291;46.222;26.460;2023-02-19T00:56:47;95871.28;;;9.27;68.12
47556;BME280;33291;46.222;26.460;2023-02-19T00:59:12;95866.66;;;9.20;68.58
47556;BME280;33291;46.222;26.460;2023-02-19T01:01:38;95862.72;;;9.16;68.87
47556;BME280;33291;46.222;26.460;2023-02-19T01:04:04;95854.56;;;9.11;69.76
47556;BME280;33291;46.222;26.460;2023-02-19T01:06:29;95843.47;;;9.09;70.52
47556;BME280;33291;46.222;26.460;2023-02-19T01:08:56;95843.63;;;9.07;70.62
47556;BME280;33291;46.222;26.460;2023-02-19T01:11:22;95846.91;;;9.10;70.95
47556;BME280;33291;46.222;26.460;2023-02-19T01:13:47;95833.81;;;9.01;71.48
47556;BME280;33291;46.222;26.460;2023-02-19T01:16:17;95859.06;;;9.09;71.52
47556;BME280;33291;46.222;26.460;2023-02-19T01:18:43;95848.81;;;9.07;71.15
47556;BME280;33291;46.222;26.460;2023-02-19T01:21:15;95851.69;;;9.04;71.38
47556;BME280;33291;46.222;26.460;2023-02-19T01:23:41;95833.94;;;9.00;71.46
47556;BME280;33291;46.222;26.460;2023-02-19T01:26:08;95848.16;;;9.05;71.28
47556;BME280;33291;46.222;26.460;2023-02-19T01:28:35;95848.28;;;9.04;70.87
47556;BME280;33291;46.222;26.460;2023-02-19T01:31:06;95845.97;;;9.01;71.09
47556;BME280;33291;46.222;26.460;2023-02-19T01:33:33;95857.19;;;9.01;71.36
47556;BME280;33291;46.222;26.460;2023-02-19T01:36:01;95844.28;;;8.82;71.71
47556;BME280;33291;46.222;26.460;2023-02-19T01:38:27;95864.91;;;8.93;71.98
47556;BME280;33291;46.222;26.460;2023-02-19T01:40:54;95858.06;;;8.92;71.95
47556;BME280;33291;46.222;26.460;2023-02-19T01:43:20;95872.69;;;8.93;71.18
47556;BME280;33291;46.222;26.460;2023-02-19T01:45:46;95870.91;;;8.94;70.87
47556;BME280;33291;46.222;26.460;2023-02-19T01:48:20;95892.63;;;8.93;71.53
47556;BME280;33291;46.222;26.460;2023-02-19T01:51:08;95883.75;;;8.95;71.39
47556;BME280;33291;46.222;26.460;2023-02-19T01:53:40;95886.25;;;8.87;70.78
47556;BME280;33291;46.222;26.460;2023-02-19T01:56:08;95879.34;;;8.96;70.68
47556;BME280;33291;46.222;26.460;2023-02-19T01:58:35;95885.09;;;8.99;69.45
47556;BME280;33291;46.222;26.460;2023-02-19T02:01:04;95881.69;;;8.99;70.20
47556;BME280;33291;46.222;26.460;2023-02-19T02:03:30;95881.13;;;8.95;69.82
47556;BME280;33291;46.222;26.460;2023-02-19T02:08:32;95892.19;;;8.97;69.88
47556;BME280;33291;46.222;26.460;2023-02-19T02:11:17;95885.47;;;9.04;68.74
47556;BME280;33291;46.222;26.460;2023-02-19T02:13:44;95896.28;;;9.00;70.20
47556;BME280;33291;46.222;26.460;2023-02-19T02:16:16;95898.38;;;8.96;70.60
47556;BME280;33291;46.222;26.460;2023-02-19T02:24:44;95887.00;;;8.97;70.42
47556;BME280;33291;46.222;26.460;2023-02-19T02:32:39;95905.66;;;8.83;71.58
47556;BME280;33291;46.222;26.460;2023-02-19T02:35:11;95889.00;;;8.85;71.16
47556;BME280;33291;46.222;26.460;2023-02-19T02:37:40;95890.88;;;8.83;71.55
47556;BME280;33291;46.222;26.460;2023-02-19T02:40:07;95918.88;;;8.89;70.16
47556;BME280;33291;46.222;26.460;2023-02-19T02:42:34;95911.78;;;8.92;70.29
47556;BME280;33291;46.222;26.460;2023-02-19T02:50:37;95928.16;;;9.02;68.07
47556;BME280;33291;46.222;26.460;2023-02-19T02:53:13;95940.31;;;9.01;68.65
47556;BME280;33291;46.222;26.460;2023-02-19T02:55:58;95930.50;;;8.95;68.94
47556;BME280;33291;46.222;26.460;2023-02-19T02:58:25;95942.25;;;8.99;69.28
47556;BME280;33291;46.222;26.460;2023-02-19T03:01:02;95945.94;;;8.97;69.30
47556;BME280;33291;46.222;26.460;2023-02-19T03:03:51;95948.28;;;8.90;71.54
47556;BME280;33291;46.222;26.460;2023-02-19T03:06:21;95944.25;;;8.78;72.02
47556;BME280;33291;46.222;26.460;2023-02-19T03:11:41;95974.28;;;8.80;70.13
47556;BME280;33291;46.222;26.460;2023-02-19T03:14:42;95974.56;;;8.77;70.04
47556;BME280;33291;46.222;26.460;2023-02-19T03:17:41;95968.44;;;8.68;70.45
47556;BME280;33291;46.222;26.460;2023-02-19T03:20:28;95980.72;;;8.66;69.63
47556;BME280;33291;46.222;26.460;2023-02-19T03:22:55;95985.94;;;8.66;68.71
47556;BME280;33291;46.222;26.460;2023-02-19T03:25:27;95997.00;;;8.68;68.72
47556;BME280;33291;46.222;26.460;2023-02-19T03:28:13;96004.25;;;8.75;67.62
47556;BME280;33291;46.222;26.460;2023-02-19T03:30:46;95995.91;;;8.71;67.58
47556;BME280;33291;46.222;26.460;2023-02-19T03:33:16;95997.53;;;8.72;68.52
47556;BME280;33291;46.222;26.460;2023-02-19T03:36:05;96001.66;;;8.65;68.58
47556;BME280;33291;46.222;26.460;2023-02-19T03:38:38;95994.81;;;8.64;67.45
47556;BME280;33291;46.222;26.460;2023-02-19T03:41:24;96003.44;;;8.64;67.81
47556;BME280;33291;46.222;26.460;2023-02-19T03:44:12;96002.88;;;8.70;67.12
47556;BME280;33291;46.222;26.460;2023-02-19T03:46:52;96009.00;;;8.69;67.03
47556;BME280;33291;46.222;26.460;2023-02-19T03:49:29;96012.03;;;8.65;67.17
47556;BME280;33291;46.222;26.460;2023-02-19T03:52:04;95999.44;;;8.80;63.71
47556;BME280;33291;46.222;26.460;2023-02-19T03:57:29;96008.41;;;8.95;62.72
47556;BME280;33291;46.222;26.460;2023-02-19T04:02:50;96000.19;;;9.10;61.81
47556;BME280;33291;46.222;26.460;2023-02-19T04:05:28;96016.25;;;9.23;60.36
47556;BME280;33291;46.222;26.460;2023-02-19T04:07:58;95997.69;;;9.18;61.13
47556;BME280;33291;46.222;26.460;2023-02-19T04:10:26;95996.47;;;9.12;61.50
47556;BME280;33291;46.222;26.460;2023-02-19T04:12:59;95980.34;;;9.09;61.05
47556;BME280;33291;46.222;26.460;2023-02-19T04:15:31;95985.47;;;9.00;61.72
47556;BME280;33291;46.222;26.460;2023-02-19T04:18:17;96024.00;;;8.95;59.85
47556;BME280;33291;46.222;26.460;2023-02-19T04:20:45;96029.44;;;9.12;59.44
47556;BME280;33291;46.222;26.460;2023-02-19T04:23:13;96019.03;;;9.12;60.65
47556;BME280;33291;46.222;26.460;2023-02-19T04:25:43;96027.25;;;9.07;60.48
47556;BME280;33291;46.222;26.460;2023-02-19T04:28:12;96028.34;;;9.04;60.96
47556;BME280;33291;46.222;26.460;2023-02-19T04:30:38;96006.94;;;8.83;61.09
47556;BME280;33291;46.222;26.460;2023-02-19T04:33:03;96052.44;;;8.97;61.63
47556;BME280;33291;46.222;26.460;2023-02-19T04:35:29;96057.78;;;8.95;62.00
47556;BME280;33291;46.222;26.460;2023-02-19T04:37:54;96075.72;;;8.88;61.98
47556;BME280;33291;46.222;26.460;2023-02-19T04:40:20;96086.50;;;8.84;61.21
47556;BME280;33291;46.222;26.460;2023-02-19T04:42:45;96089.38;;;8.91;61.75
47556;BME280;33291;46.222;26.460;2023-02-19T04:45:10;96091.56;;;8.85;62.13
47556;BME280;33291;46.222;26.460;2023-02-19T04:47:36;96098.41;;;8.77;62.84
47556;BME280;33291;46.222;26.460;2023-02-19T04:50:02;96107.69;;;8.69;63.31
47556;BME280;33291;46.222;26.460;2023-02-19T04:52:27;96114.53;;;8.70;63.15
47556;BME280;33291;46.222;26.460;2023-02-19T04:54:53;96125.84;;;8.69;63.43
47556;BME280;33291;46.222;26.460;2023-02-19T04:57:18;96116.69;;;8.65;63.71
47556;BME280;33291;46.222;26.460;2023-02-19T04:59:45;96123.81;;;8.63;63.70
47556;BME280;33291;46.222;26.460;2023-02-19T05:02:10;96132.03;;;8.68;63.82
47556;BME280;33291;46.222;26.460;2023-02-19T05:04:36;96130.66;;;8.64;64.09
47556;BME280;33291;46.222;26.460;2023-02-19T05:07:01;96140.78;;;8.67;64.27
47556;BME280;33291;46.222;26.460;2023-02-19T05:09:27;96129.81;;;8.64;64.21
47556;BME280;33291;46.222;26.460;2023-02-19T05:11:52;96137.22;;;8.68;64.38
47556;BME280;33291;46.222;26.460;2023-02-19T05:14:18;96125.31;;;8.66;64.22
47556;BME280;33291;46.222;26.460;2023-02-19T05:16:43;96145.13;;;8.67;64.56
47556;BME280;33291;46.222;26.460;2023-02-19T05:19:12;96127.09;;;8.65;64.87
47556;BME280;33291;46.222;26.460;2023-02-19T05:21:37;96129.00;;;8.63;64.58
47556;BME280;33291;46.222;26.460;2023-02-19T05:24:05;96116.84;;;8.64;64.87
47556;BME280;33291;46.222;26.460;2023-02-19T05:26:31;96111.91;;;8.61;64.88
47556;BME280;33291;46.222;26.460;2023-02-19T05:28:56;96123.00;;;8.63;65.24
47556;BME280;33291;46.222;26.460;2023-02-19T05:31:23;96107.41;;;8.53;64.23
47556;BME280;33291;46.222;26.460;2023-02-19T05:33:49;96118.22;;;8.58;65.25
47556;BME280;33291;46.222;26.460;2023-02-19T05:36:18;96121.75;;;8.57;64.66
47556;BME280;33291;46.222;26.460;2023-02-19T05:38:43;96124.22;;;8.49;64.87
47556;BME280;33291;46.222;26.460;2023-02-19T05:41:16;96102.78;;;8.57;64.49
47556;BME280;33291;46.222;26.460;2023-02-19T05:43:43;96103.31;;;8.60;64.67
47556;BME280;33291;46.222;26.460;2023-02-19T05:46:11;96102.50;;;8.60;63.67
47556;BME280;33291;46.222;26.460;2023-02-19T05:48:37;96097.97;;;8.62;62.93
47556;BME280;33291;46.222;26.460;2023-02-19T05:51:04;96092.50;;;8.65;62.21
47556;BME280;33291;46.222;26.460;2023-02-19T05:53:30;96087.06;;;8.68;62.12
47556;BME280;33291;46.222;26.460;2023-02-19T05:55:56;96095.81;;;8.77;61.63
47556;BME280;33291;46.222;26.460;2023-02-19T05:58:21;96096.47;;;8.79;61.62
47556;BME280;33291;46.222;26.460;2023-02-19T06:00:47;96074.75;;;8.60;61.81
47556;BME280;33291;46.222;26.460;2023-02-19T06:03:13;96098.25;;;8.78;61.61
47556;BME280;33291;46.222;26.460;2023-02-19T06:05:38;96107.00;;;8.77;61.85
47556;BME280;33291;46.222;26.460;2023-02-19T06:08:04;96098.78;;;8.82;60.85
47556;BME280;33291;46.222;26.460;2023-02-19T06:10:29;96100.72;;;8.80;61.55
47556;BME280;33291;46.222;26.460;2023-02-19T06:12:55;96101.66;;;8.79;61.98
47556;BME280;33291;46.222;26.460;2023-02-19T06:15:20;96106.88;;;8.79;62.21
47556;BME280;33291;46.222;26.460;2023-02-19T06:17:46;96102.22;;;8.82;61.10
47556;BME280;33291;46.222;26.460;2023-02-19T06:20:12;96092.66;;;8.83;60.80
47556;BME280;33291;46.222;26.460;2023-02-19T06:22:38;96104.28;;;8.88;60.84
47556;BME280;33291;46.222;26.460;2023-02-19T06:25:03;96091.28;;;8.88;60.59
47556;BME280;33291;46.222;26.460;2023-02-19T06:27:30;96100.44;;;9.02;59.06
47556;BME280;33291;46.222;26.460;2023-02-19T06:29:55;96103.56;;;9.16;58.75
47556;BME280;33291;46.222;26.460;2023-02-19T06:32:20;96100.69;;;9.19;58.78
47556;BME280;33291;46.222;26.460;2023-02-19T06:34:46;96076.59;;;9.17;58.65
47556;BME280;33291;46.222;26.460;2023-02-19T06:37:11;96091.19;;;9.28;58.33
47556;BME280;33291;46.222;26.460;2023-02-19T06:39:37;96088.06;;;9.34;57.82
47556;BME280;33291;46.222;26.460;2023-02-19T06:42:02;96084.63;;;9.33;57.85
47556;BME280;33291;46.222;26.460;2023-02-19T06:44:28;96077.13;;;9.30;58.02
47556;BME280;33291;46.222;26.460;2023-02-19T06:46:54;96075.22;;;9.32;57.83
47556;BME280;33291;46.222;26.460;2023-02-19T06:49:20;96095.16;;;9.41;57.78
47556;BME280;33291;46.222;26.460;2023-02-19T06:51:46;96080.47;;;9.50;57.42
47556;BME280;33291;46.222;26.460;2023-02-19T06:54:12;96064.47;;;9.45;57.40
47556;BME280;33291;46.222;26.460;2023-02-19T06:56:38;96083.56;;;9.64;57.42
47556;BME280;33291;46.222;26.460;2023-02-19T06:59:08;96087.91;;;9.73;56.96
47556;BME280;33291;46.222;26.460;2023-02-19T07:01:35;96088.84;;;9.82;56.84
47556;BME280;33291;46.222;26.460;2023-02-19T07:04:01;96089.91;;;9.89;56.06
47556;BME280;33291;46.222;26.460;2023-02-19T07:06:27;96092.22;;;9.92;56.28
47556;BME280;33291;46.222;26.460;2023-02-19T07:08:54;96099.81;;;10.03;55.48
47556;BME280;33291;46.222;26.460;2023-02-19T07:11:20;96102.72;;;10.00;55.78
47556;BME280;33291;46.222;26.460;2023-02-19T07:13:45;96109.59;;;9.91;56.52
47556;BME280;33291;46.222;26.460;2023-02-19T07:16:12;96113.03;;;9.92;56.42
47556;BME280;33291;46.222;26.460;2023-02-19T07:18:39;96115.91;;;9.89;56.50
47556;BME280;33291;46.222;26.460;2023-02-19T07:21:09;96111.28;;;9.83;56.04
47556;BME280;33291;46.222;26.460;2023-02-19T07:23:35;96118.94;;;9.84;56.35
47556;BME280;33291;46.222;26.460;2023-02-19T07:26:01;96118.41;;;9.81;56.68
47556;BME280;33291;46.222;26.460;2023-02-19T07:28:27;96115.00;;;9.80;56.66
47556;BME280;33291;46.222;26.460;2023-02-19T07:30:53;96129.09;;;9.77;56.39
47556;BME280;33291;46.222;26.460;2023-02-19T07:33:19;96122.56;;;9.73;56.58
47556;BME280;33291;46.222;26.460;2023-02-19T07:35:48;96115.31;;;9.67;56.73
47556;BME280;33291;46.222;26.460;2023-02-19T07:38:15;96119.97;;;9.73;56.85
47556;BME280;33291;46.222;26.460;2023-02-19T07:40:41;96118.31;;;9.72;56.79
47556;BME280;33291;46.222;26.460;2023-02-19T07:43:06;96117.78;;;9.69;57.22
47556;BME280;33291;46.222;26.460;2023-02-19T07:45:32;96131.31;;;9.72;57.10
47556;BME280;33291;46.222;26.460;2023-02-19T07:47:57;96121.47;;;9.66;57.27
47556;BME280;33291;46.222;26.460;2023-02-19T07:50:23;96130.09;;;9.67;57.61
47556;BME280;33291;46.222;26.460;2023-02-19T07:52:48;96145.84;;;9.65;57.82
47556;BME280;33291;46.222;26.460;2023-02-19T07:55:14;96135.88;;;9.60;58.25
47556;BME280;33291;46.222;26.460;2023-02-19T07:57:39;96136.94;;;9.58;58.45
47556;BME280;33291;46.222;26.460;2023-02-19T08:00:05;96143.13;;;9.57;58.76
47556;BME280;33291;46.222;26.460;2023-02-19T08:02:30;96132.03;;;9.55;58.97
47556;BME280;33291;46.222;26.460;2023-02-19T08:05:15;96140.13;;;9.52;58.93
47556;BME280;33291;46.222;26.460;2023-02-19T08:07:40;96136.56;;;9.53;58.90
47556;BME280;33291;46.222;26.460;2023-02-19T08:10:06;96135.06;;;9.50;59.11
47556;BME280;33291;46.222;26.460;2023-02-19T08:12:59;96136.19;;;9.48;59.32
47556;BME280;33291;46.222;26.460;2023-02-19T08:16:11;96142.72;;;9.52;59.98
47556;BME280;33291;46.222;26.460;2023-02-19T08:18:37;96136.19;;;9.48;60.03
47556;BME280;33291;46.222;26.460;2023-02-19T08:21:03;96154.09;;;9.51;60.30
47556;BME280;33291;46.222;26.460;2023-02-19T08:23:29;96144.28;;;9.45;61.08
47556;BME280;33291;46.222;26.460;2023-02-19T08:25:59;96159.44;;;9.49;61.31
47556;BME280;33291;46.222;26.460;2023-02-19T08:28:25;96151.38;;;9.42;61.60
47556;BME280;33291;46.222;26.460;2023-02-19T08:30:50;96153.81;;;9.44;61.88
47556;BME280;33291;46.222;26.460;2023-02-19T08:33:18;96153.00;;;9.43;61.98
47556;BME280;33291;46.222;26.460;2023-02-19T08:35:44;96150.56;;;9.42;62.08
47556;BME280;33291;46.222;26.460;2023-02-19T08:38:11;96152.34;;;9.41;62.23
47556;BME280;33291;46.222;26.460;2023-02-19T08:40:38;96159.16;;;9.42;62.32
47556;BME280;33291;46.222;26.460;2023-02-19T08:43:06;96154.38;;;9.38;61.96
47556;BME280;33291;46.222;26.460;2023-02-19T08:45:32;96154.53;;;9.36;61.68
47556;BME280;33291;46.222;26.460;2023-02-19T08:47:58;96137.44;;;9.34;61.76
47556;BME280;33291;46.222;26.460;2023-02-19T08:50:24;96160.16;;;9.41;61.59
47556;BME280;33291;46.222;26.460;2023-02-19T08:52:49;96164.38;;;9.42;61.68
47556;BME280;33291;46.222;26.460;2023-02-19T08:55:15;96153.00;;;9.43;61.06
47556;BME280;33291;46.222;26.460;2023-02-19T08:57:40;96158.88;;;9.46;61.19
47556;BME280;33291;46.222;26.460;2023-02-19T09:00:06;96155.47;;;9.45;60.67
47556;BME280;33291;46.222;26.460;2023-02-19T09:02:33;96152.88;;;9.45;60.49
47556;BME280;33291;46.222;26.460;2023-02-19T09:04:59;96141.66;;;9.45;59.92
47556;BME280;33291;46.222;26.460;2023-02-19T09:07:24;96138.94;;;9.46;59.68
47556;BME280;33291;46.222;26.460;2023-02-19T09:09:50;96143.16;;;9.47;59.88
47556;BME280;33291;46.222;26.460;2023-02-19T09:12:15;96150.81;;;9.49;59.79
47556;BME280;33291;46.222;26.460;2023-02-19T09:14:41;96144.13;;;9.46;59.80
47556;BME280;33291;46.222;26.460;2023-02-19T09:17:07;96148.91;;;9.51;59.27
47556;BME280;33291;46.222;26.460;2023-02-19T09:19:34;96139.06;;;9.45;59.74
47556;BME280;33291;46.222;26.460;2023-02-19T09:22:00;96140.03;;;9.43;60.08
47556;BME280;33291;46.222;26.460;2023-02-19T09:24:25;96131.13;;;9.36;59.60
47556;BME280;33291;46.222;26.460;2023-02-19T09:26:52;96147.53;;;9.47;59.42
47556;BME280;33291;46.222;26.460;2023-02-19T09:29:18;96146.16;;;9.42;59.66
47556;BME280;33291;46.222;26.460;2023-02-19T09:31:44;96110.19;;;9.38;59.81
47556;BME280;33291;46.222;26.460;2023-02-19T09:34:09;96130.44;;;9.44;60.08
47556;BME280;33291;46.222;26.460;2023-02-19T09:36:36;96126.50;;;9.40;60.44
47556;BME280;33291;46.222;26.460;2023-02-19T09:39:03;96113.78;;;9.37;60.93
47556;BME280;33291;46.222;26.460;2023-02-19T09:41:41;96129.78;;;9.32;60.58
47556;BME280;33291;46.222;26.460;2023-02-19T09:46:51;96129.50;;;9.25;61.30
47556;BME280;33291;46.222;26.460;2023-02-19T09:52:03;96071.97;;;9.11;61.27
47556;BME280;33291;46.222;26.460;2023-02-19T09:54:30;96098.19;;;9.27;61.72
47556;BME280;33291;46.222;26.460;2023-02-19T09:57:00;96090.09;;;9.30;61.53
47556;BME280;33291;46.222;26.460;2023-02-19T09:59:30;96098.59;;;9.32;61.62
47556;BME280;33291;46.222;26.460;2023-02-19T10:02:12;96097.75;;;9.32;61.01
47556;BME280;33291;46.222;26.460;2023-02-19T10:04:42;96098.31;;;9.35;60.00
47556;BME280;33291;46.222;26.460;2023-02-19T10:07:13;96084.25;;;9.28;59.92
47556;BME280;33291;46.222;26.460;2023-02-19T10:09:39;96087.94;;;9.35;60.06
47556;BME280;33291;46.222;26.460;2023-02-19T10:12:14;96089.53;;;9.36;60.22
47556;BME280;33291;46.222;26.460;2023-02-19T10:14:49;96090.25;;;9.38;60.22
47556;BME280;33291;46.222;26.460;2023-02-19T10:17:22;96082.03;;;9.33;60.06
47556;BME280;33291;46.222;26.460;2023-02-19T10:19:49;96076.25;;;9.39;60.18
47556;BME280;33291;46.222;26.460;2023-02-19T10:22:15;96080.00;;;9.37;59.73
47556;BME280;33291;46.222;26.460;2023-02-19T10:24:42;96044.84;;;9.33;59.78
47556;BME280;33291;46.222;26.460;2023-02-19T10:27:13;96047.84;;;9.28;58.05
47556;BME280;33291;46.222;26.460;2023-02-19T10:29:38;96064.91;;;9.40;58.00
47556;BME280;33291;46.222;26.460;2023-02-19T10:32:21;96045.19;;;9.48;58.02
47556;BME280;33291;46.222;26.460;2023-02-19T10:35:11;96058.56;;;9.53;58.30
47556;BME280;33291;46.222;26.460;2023-02-19T10:37:42;96042.69;;;9.56;57.84
47556;BME280;33291;46.222;26.460;2023-02-19T10:40:15;96041.31;;;9.62;57.14
47556;BME280;33291;46.222;26.460;2023-02-19T10:42:45;96054.16;;;9.63;57.25
47556;BME280;33291;46.222;26.460;2023-02-19T10:45:38;96055.38;;;9.69;57.09
47556;BME280;33291;46.222;26.460;2023-02-19T10:48:02;96059.16;;;9.74;56.64
47556;BME280;33291;46.222;26.460;2023-02-19T10:50:34;96050.47;;;9.84;56.18
47556;BME280;33291;46.222;26.460;2023-02-19T10:53:03;96057.63;;;9.82;55.79
47556;BME280;33291;46.222;26.460;2023-02-19T10:55:33;96056.81;;;9.81;56.31
47556;BME280;33291;46.222;26.460;2023-02-19T10:58:22;96042.06;;;9.72;56.88
47556;BME280;33291;46.222;26.460;2023-02-19T11:01:23;96042.88;;;9.72;56.61
47556;BME280;33291;46.222;26.460;2023-02-19T11:04:15;96042.41;;;9.59;56.84
47556;BME280;33291;46.222;26.460;2023-02-19T11:06:41;96046.22;;;9.55;57.27
47556;BME280;33291;46.222;26.460;2023-02-19T11:09:26;96009.38;;;9.41;57.31
47556;BME280;33291;46.222;26.460;2023-02-19T11:11:53;96040.50;;;9.51;57.56
47556;BME280;33291;46.222;26.460;2023-02-19T11:14:22;96051.72;;;9.52;57.89
47556;BME280;33291;46.222;26.460;2023-02-19T11:16:59;96029.31;;;9.51;57.47
47556;BME280;33291;46.222;26.460;2023-02-19T11:19:43;96038.72;;;9.52;57.21
47556;BME280;33291;46.222;26.460;2023-02-19T11:22:31;96050.63;;;9.54;57.85
47556;BME280;33291;46.222;26.460;2023-02-19T11:25:23;96049.41;;;9.49;58.29
47556;BME280;33291;46.222;26.460;2023-02-19T11:30:42;96039.72;;;9.51;57.13
47556;BME280;33291;46.222;26.460;2023-02-19T11:35:46;96019.84;;;9.50;56.64
47556;BME280;33291;46.222;26.460;2023-02-19T11:38:14;96030.13;;;9.51;56.93
47556;BME280;33291;46.222;26.460;2023-02-19T11:40:42;96015.19;;;9.53;56.88
47556;BME280;33291;46.222;26.460;2023-02-19T11:43:46;96023.91;;;9.62;55.97
47556;BME280;33291;46.222;26.460;2023-02-19T11:46:24;96017.50;;;9.56;56.02
47556;BME280;33291;46.222;26.460;2023-02-19T11:51:41;96021.88;;;9.56;55.96
47556;BME280;33291;46.222;26.460;2023-02-19T11:54:33;96009.97;;;9.53;56.57
47556;BME280;33291;46.222;26.460;2023-02-19T11:57:32;96004.19;;;9.59;56.04
47556;BME280;33291;46.222;26.460;2023-02-19T12:21:31;95992.84;;;9.60;56.99
47556;BME280;33291;46.222;26.460;2023-02-19T12:26:49;95987.13;;;9.57;57.87
47556;BME280;33291;46.222;26.460;2023-02-19T12:32:37;95966.31;;;9.57;57.23
47556;BME280;33291;46.222;26.460;2023-02-19T12:35:14;95982.44;;;9.60;57.68
47556;BME280;33291;46.222;26.460;2023-02-19T12:38:12;95974.19;;;9.65;57.00
47556;BME280;33291;46.222;26.460;2023-02-19T12:46:04;95937.22;;;9.71;56.55
47556;BME280;33291;46.222;26.460;2023-02-19T12:56:17;95940.06;;;9.96;55.22
47556;BME280;33291;46.222;26.460;2023-02-19T12:58:50;95929.66;;;9.96;55.64
47556;BME280;33291;46.222;26.460;2023-02-19T13:01:24;95957.38;;;10.05;55.45
47556;BME280;33291;46.222;26.460;2023-02-19T13:04:21;95946.38;;;10.11;55.02
47556;BME280;33291;46.222;26.460;2023-02-19T13:09:37;95945.53;;;10.47;54.12
47556;BME280;33291;46.222;26.460;2023-02-19T13:19:43;95926.69;;;10.79;53.15
47556;BME280;33291;46.222;26.460;2023-02-19T13:22:26;95935.81;;;10.75;52.96
47556;BME280;33291;46.222;26.460;2023-02-19T13:25:13;95943.25;;;10.70;53.22
47556;BME280;33291;46.222;26.460;2023-02-19T13:28:06;95916.72;;;10.66;52.60
47556;BME280;33291;46.222;26.460;2023-02-19T13:36:23;95939.44;;;10.38;53.97
47556;BME280;33291;46.222;26.460;2023-02-19T13:38:50;95943.78;;;10.29;54.14
47556;BME280;33291;46.222;26.460;2023-02-19T13:41:26;95938.03;;;10.26;54.17
47556;BME280;33291;46.222;26.460;2023-02-19T13:43:58;95944.88;;;10.27;54.49
47556;BME280;33291;46.222;26.460;2023-02-19T13:46:33;95961.47;;;10.26;54.70
47556;BME280;33291;46.222;26.460;2023-02-19T13:52:00;95959.09;;;10.14;55.08
47556;BME280;33291;46.222;26.460;2023-02-19T13:57:23;95945.84;;;10.08;55.68
47556;BME280;33291;46.222;26.460;2023-02-19T13:59:51;95931.88;;;10.09;55.58
47556;BME280;33291;46.222;26.460;2023-02-19T14:04:51;95930.69;;;10.03;56.24
47556;BME280;33291;46.222;26.460;2023-02-19T14:09:44;95939.91;;;9.98;56.30
47556;BME280;33291;46.222;26.460;2023-02-19T14:14:40;95933.81;;;9.89;56.50
47556;BME280;33291;46.222;26.460;2023-02-19T14:17:42;95917.53;;;9.87;57.08
47556;BME280;33291;46.222;26.460;2023-02-19T14:27:59;95891.91;;;9.92;57.56
47556;BME280;33291;46.222;26.460;2023-02-19T14:30:26;95872.88;;;9.73;57.79
47556;BME280;33291;46.222;26.460;2023-02-19T14:32:52;95900.75;;;9.81;57.97
47556;BME280;33291;46.222;26.460;2023-02-19T14:35:19;95907.56;;;9.82;57.70
47556;BME280;33291;46.222;26.460;2023-02-19T14:37:46;95911.16;;;9.81;57.46
47556;BME280;33291;46.222;26.460;2023-02-19T14:40:41;95884.44;;;9.79;57.71
47556;BME280;33291;46.222;26.460;2023-02-19T14:43:12;95904.16;;;9.82;57.67
47556;BME280;33291;46.222;26.460;2023-02-19T14:45:48;95904.16;;;9.82;58.02
47556;BME280;33291;46.222;26.460;2023-02-19T14:48:21;95883.66;;;9.78;57.99
47556;BME280;33291;46.222;26.460;2023-02-19T14:50:52;95881.03;;;9.78;57.65
47556;BME280;33291;46.222;26.460;2023-02-19T14:53:21;95857.28;;;9.73;57.63
47556;BME280;33291;46.222;26.460;2023-02-19T14:55:49;95862.84;;;9.78;57.50
47556;BME280;33291;46.222;26.460;2023-02-19T14:58:29;95862.84;;;9.78;58.41
47556;BME280;33291;46.222;26.460;2023-02-19T15:00:56;95853.84;;;9.73;59.22
47556;BME280;33291;46.222;26.460;2023-02-19T15:03:33;95822.72;;;9.63;59.52
47556;BME280;33291;46.222;26.460;2023-02-19T15:06:05;95841.97;;;9.70;58.91
47556;BME280;33291;46.222;26.460;2023-02-19T15:08:44;95827.31;;;9.69;59.09
47556;BME280;33291;46.222;26.460;2023-02-19T15:11:16;95849.09;;;9.68;59.31
47556;BME280;33291;46.222;26.460;2023-02-19T15:13:48;95838.47;;;9.62;59.95
47556;BME280;33291;46.222;26.460;2023-02-19T15:16:20;95841.13;;;9.52;60.28